Witting, Texas
Current Conditions -  °F | °C
As of 4:15 PM on Friday 24 Oct 2014 (Local Time) from KT20 Reporting Station
Clear Clear  
Wind Chill: 85°   Ceiling: Unl
Heat Index: 85°   Visibility: 10mi
Dew Point: 59°   Wind: 0mph
Humidity: 41%   Direction: NA
Pressure: 30.08"   Gusts: NA
Location:  29.5667°N, 97.0723°W
Report Text: KT20 242115Z AUTO 00000KT 10SM CLR 30/15 A3008 RMK AO2 T02950151
Loading
Personal Weather Stations






























Interactive Weather Map
Tropical Storm Tracking
New forecast layout! Learn more

10-Day Weather Forecast

Advertisements
Track Severe Weather on mobile